sensor_id;sensor_type;location;lat;lon;timestamp;P1;durP1;ratioP1;P2;durP2;ratioP2
14348;SDS011;7258;50.376;8.742;2023-04-25T00:01:48;35.17;;;20.73;;
14348;SDS011;7258;50.376;8.742;2023-04-25T00:03:52;36.67;;;21.67;;
14348;SDS011;7258;50.376;8.742;2023-04-25T00:05:58;35.27;;;20.53;;
14348;SDS011;7258;50.376;8.742;2023-04-25T00:08:03;33.40;;;21.33;;
14348;SDS011;7258;50.376;8.742;2023-04-25T00:10:07;33.50;;;20.97;;
14348;SDS011;7258;50.376;8.742;2023-04-25T00:12:12;35.63;;;20.73;;
14348;SDS011;7258;50.376;8.742;2023-04-25T00:14:16;30.90;;;20.57;;
14348;SDS011;7258;50.376;8.742;2023-04-25T00:16:19;32.67;;;20.43;;
14348;SDS011;7258;50.376;8.742;2023-04-25T00:18:22;34.83;;;19.97;;
14348;SDS011;7258;50.376;8.742;2023-04-25T00:20:25;40.53;;;21.93;;
14348;SDS011;7258;50.376;8.742;2023-04-25T00:22:28;40.83;;;22.03;;
14348;SDS011;7258;50.376;8.742;2023-04-25T00:24:31;36.37;;;21.23;;
14348;SDS011;7258;50.376;8.742;2023-04-25T00:26:34;37.47;;;22.17;;
14348;SDS011;7258;50.376;8.742;2023-04-25T00:28:37;37.07;;;21.93;;
14348;SDS011;7258;50.376;8.742;2023-04-25T00:30:42;40.57;;;23.27;;
14348;SDS011;7258;50.376;8.742;2023-04-25T00:32:46;39.23;;;22.70;;
14348;SDS011;7258;50.376;8.742;2023-04-25T00:34:50;39.10;;;22.37;;
14348;SDS011;7258;50.376;8.742;2023-04-25T00:36:53;36.03;;;22.10;;
14348;SDS011;7258;50.376;8.742;2023-04-25T00:38:56;38.97;;;22.77;;
14348;SDS011;7258;50.376;8.742;2023-04-25T00:40:59;38.60;;;23.60;;
14348;SDS011;7258;50.376;8.742;2023-04-25T00:43:02;43.33;;;23.87;;
14348;SDS011;7258;50.376;8.742;2023-04-25T00:45:05;38.53;;;24.50;;
14348;SDS011;7258;50.376;8.742;2023-04-25T00:47:11;44.23;;;24.80;;
14348;SDS011;7258;50.376;8.742;2023-04-25T00:49:14;41.77;;;25.33;;
14348;SDS011;7258;50.376;8.742;2023-04-25T00:51:19;39.37;;;24.47;;
14348;SDS011;7258;50.376;8.742;2023-04-25T00:53:23;47.50;;;26.00;;
14348;SDS011;7258;50.376;8.742;2023-04-25T00:55:27;45.17;;;25.10;;
14348;SDS011;7258;50.376;8.742;2023-04-25T00:57:30;43.83;;;24.77;;
14348;SDS011;7258;50.376;8.742;2023-04-25T00:59:35;45.67;;;25.20;;
14348;SDS011;7258;50.376;8.742;2023-04-25T01:01:39;41.83;;;24.50;;
14348;SDS011;7258;50.376;8.742;2023-04-25T01:03:48;45.80;;;25.80;;
14348;SDS011;7258;50.376;8.742;2023-04-25T01:05:53;37.93;;;22.97;;
14348;SDS011;7258;50.376;8.742;2023-04-25T01:07:56;45.00;;;25.00;;
14348;SDS011;7258;50.376;8.742;2023-04-25T01:09:59;42.40;;;25.63;;
14348;SDS011;7258;50.376;8.742;2023-04-25T01:12:03;44.87;;;25.47;;
14348;SDS011;7258;50.376;8.742;2023-04-25T01:14:06;44.43;;;23.90;;
14348;SDS011;7258;50.376;8.742;2023-04-25T01:16:09;43.17;;;24.80;;
14348;SDS011;7258;50.376;8.742;2023-04-25T01:18:12;35.70;;;23.57;;
14348;SDS011;7258;50.376;8.742;2023-04-25T01:20:20;41.80;;;24.77;;
14348;SDS011;7258;50.376;8.742;2023-04-25T01:22:26;36.27;;;24.40;;
14348;SDS011;7258;50.376;8.742;2023-04-25T01:24:30;38.87;;;23.97;;
14348;SDS011;7258;50.376;8.742;2023-04-25T01:26:34;39.33;;;24.40;;
14348;SDS011;7258;50.376;8.742;2023-04-25T01:28:38;39.27;;;24.03;;
14348;SDS011;7258;50.376;8.742;2023-04-25T01:30:42;38.10;;;23.83;;
14348;SDS011;7258;50.376;8.742;2023-04-25T01:32:45;40.27;;;24.33;;
14348;SDS011;7258;50.376;8.742;2023-04-25T01:34:50;39.33;;;23.83;;
14348;SDS011;7258;50.376;8.742;2023-04-25T01:36:53;41.37;;;24.43;;
14348;SDS011;7258;50.376;8.742;2023-04-25T01:39:01;39.47;;;24.53;;
14348;SDS011;7258;50.376;8.742;2023-04-25T01:41:05;36.73;;;22.53;;
14348;SDS011;7258;50.376;8.742;2023-04-25T01:43:09;37.50;;;23.47;;
14348;SDS011;7258;50.376;8.742;2023-04-25T01:45:13;36.83;;;23.80;;
14348;SDS011;7258;50.376;8.742;2023-04-25T01:47:16;40.23;;;24.00;;
14348;SDS011;7258;50.376;8.742;2023-04-25T01:49:19;39.30;;;24.43;;
14348;SDS011;7258;50.376;8.742;2023-04-25T01:51:22;34.87;;;22.50;;
14348;SDS011;7258;50.376;8.742;2023-04-25T01:53:28;35.23;;;23.13;;
14348;SDS011;7258;50.376;8.742;2023-04-25T01:55:33;37.00;;;23.33;;
14348;SDS011;7258;50.376;8.742;2023-04-25T01:57:36;36.20;;;23.97;;
14348;SDS011;7258;50.376;8.742;2023-04-25T01:59:39;34.50;;;22.43;;
14348;SDS011;7258;50.376;8.742;2023-04-25T02:01:44;38.13;;;24.50;;
14348;SDS011;7258;50.376;8.742;2023-04-25T02:03:48;35.73;;;23.17;;
14348;SDS011;7258;50.376;8.742;2023-04-25T02:05:52;36.47;;;23.30;;
14348;SDS011;7258;50.376;8.742;2023-04-25T02:07:55;38.10;;;24.17;;
14348;SDS011;7258;50.376;8.742;2023-04-25T02:09:58;36.93;;;23.53;;
14348;SDS011;7258;50.376;8.742;2023-04-25T02:12:03;32.40;;;22.57;;
14348;SDS011;7258;50.376;8.742;2023-04-25T02:14:07;33.93;;;21.23;;
14348;SDS011;7258;50.376;8.742;2023-04-25T02:16:10;32.43;;;22.17;;
14348;SDS011;7258;50.376;8.742;2023-04-25T02:18:16;33.60;;;21.10;;
14348;SDS011;7258;50.376;8.742;2023-04-25T02:20:23;30.80;;;21.43;;
14348;SDS011;7258;50.376;8.742;2023-04-25T02:22:34;32.67;;;21.40;;
14348;SDS011;7258;50.376;8.742;2023-04-25T02:24:38;34.47;;;20.57;;
14348;SDS011;7258;50.376;8.742;2023-04-25T02:26:41;30.60;;;22.33;;
14348;SDS011;7258;50.376;8.742;2023-04-25T02:28:46;29.13;;;19.90;;
14348;SDS011;7258;50.376;8.742;2023-04-25T02:30:50;28.17;;;19.80;;
14348;SDS011;7258;50.376;8.742;2023-04-25T02:32:53;28.80;;;19.90;;
14348;SDS011;7258;50.376;8.742;2023-04-25T02:34:57;25.20;;;18.00;;
14348;SDS011;7258;50.376;8.742;2023-04-25T02:37:05;22.77;;;18.23;;
14348;SDS011;7258;50.376;8.742;2023-04-25T02:39:08;25.47;;;18.27;;
14348;SDS011;7258;50.376;8.742;2023-04-25T02:41:11;23.67;;;16.97;;
14348;SDS011;7258;50.376;8.742;2023-04-25T02:43:14;30.63;;;17.97;;
14348;SDS011;7258;50.376;8.742;2023-04-25T02:45:19;23.83;;;17.60;;
14348;SDS011;7258;50.376;8.742;2023-04-25T02:47:24;21.73;;;16.33;;
14348;SDS011;7258;50.376;8.742;2023-04-25T02:49:33;22.07;;;15.87;;
14348;SDS011;7258;50.376;8.742;2023-04-25T02:51:37;24.63;;;17.20;;
14348;SDS011;7258;50.376;8.742;2023-04-25T02:53:41;21.80;;;16.13;;
14348;SDS011;7258;50.376;8.742;2023-04-25T02:55:54;20.97;;;15.20;;
14348;SDS011;7258;50.376;8.742;2023-04-25T02:58:02;15.53;;;13.10;;
14348;SDS011;7258;50.376;8.742;2023-04-25T03:00:06;16.80;;;13.33;;
14348;SDS011;7258;50.376;8.742;2023-04-25T03:02:11;14.53;;;11.30;;
14348;SDS011;7258;50.376;8.742;2023-04-25T03:04:18;14.53;;;10.60;;
14348;SDS011;7258;50.376;8.742;2023-04-25T03:06:25;15.47;;;11.17;;
14348;SDS011;7258;50.376;8.742;2023-04-25T03:08:31;12.73;;;11.00;;
14348;SDS011;7258;50.376;8.742;2023-04-25T03:10:38;12.20;;;10.83;;
14348;SDS011;7258;50.376;8.742;2023-04-25T03:12:48;14.37;;;11.10;;
14348;SDS011;7258;50.376;8.742;2023-04-25T03:14:55;14.90;;;10.83;;
14348;SDS011;7258;50.376;8.742;2023-04-25T03:17:02;14.57;;;11.53;;
14348;SDS011;7258;50.376;8.742;2023-04-25T03:19:08;14.10;;;12.03;;
14348;SDS011;7258;50.376;8.742;2023-04-25T03:21:22;14.23;;;12.00;;
14348;SDS011;7258;50.376;8.742;2023-04-25T03:23:35;14.83;;;10.80;;
14348;SDS011;7258;50.376;8.742;2023-04-25T03:25:48;13.80;;;9.70;;
14348;SDS011;7258;50.376;8.742;2023-04-25T03:27:54;13.60;;;10.37;;
14348;SDS011;7258;50.376;8.742;2023-04-25T03:30:05;12.90;;;9.60;;
14348;SDS011;7258;50.376;8.742;2023-04-25T03:32:09;13.23;;;10.13;;
14348;SDS011;7258;50.376;8.742;2023-04-25T03:34:23;12.27;;;8.47;;
14348;SDS011;7258;50.376;8.742;2023-04-25T03:36:39;17.37;;;10.07;;
14348;SDS011;7258;50.376;8.742;2023-04-25T03:39:00;17.10;;;9.67;;
14348;SDS011;7258;50.376;8.742;2023-04-25T03:41:03;15.63;;;9.83;;
14348;SDS011;7258;50.376;8.742;2023-04-25T03:43:13;15.93;;;9.40;;
14348;SDS011;7258;50.376;8.742;2023-04-25T03:45:16;14.83;;;9.80;;
14348;SDS011;7258;50.376;8.742;2023-04-25T03:47:22;17.40;;;10.00;;
14348;SDS011;7258;50.376;8.742;2023-04-25T03:49:39;12.83;;;8.60;;
14348;SDS011;7258;50.376;8.742;2023-04-25T03:52:01;13.73;;;9.10;;
14348;SDS011;7258;50.376;8.742;2023-04-25T03:54:15;16.37;;;9.03;;
14348;SDS011;7258;50.376;8.742;2023-04-25T03:56:23;15.03;;;8.77;;
14348;SDS011;7258;50.376;8.742;2023-04-25T03:58:52;13.10;;;7.43;;
14348;SDS011;7258;50.376;8.742;2023-04-25T04:00:57;14.47;;;7.70;;
14348;SDS011;7258;50.376;8.742;2023-04-25T04:03:19;13.03;;;7.67;;
14348;SDS011;7258;50.376;8.742;2023-04-25T04:05:41;13.77;;;8.60;;
14348;SDS011;7258;50.376;8.742;2023-04-25T04:07:47;16.13;;;8.47;;
14348;SDS011;7258;50.376;8.742;2023-04-25T04:09:50;17.43;;;7.90;;
14348;SDS011;7258;50.376;8.742;2023-04-25T04:11:53;14.07;;;8.03;;
14348;SDS011;7258;50.376;8.742;2023-04-25T04:13:56;13.00;;;7.50;;
14348;SDS011;7258;50.376;8.742;2023-04-25T04:15:59;12.53;;;8.10;;
14348;SDS011;7258;50.376;8.742;2023-04-25T04:18:02;13.90;;;7.63;;
14348;SDS011;7258;50.376;8.742;2023-04-25T04:20:05;14.13;;;7.93;;
14348;SDS011;7258;50.376;8.742;2023-04-25T04:22:19;14.20;;;7.70;;
14348;SDS011;7258;50.376;8.742;2023-04-25T04:24:33;13.17;;;7.90;;
14348;SDS011;7258;50.376;8.742;2023-04-25T04:26:41;15.93;;;8.60;;
14348;SDS011;7258;50.376;8.742;2023-04-25T04:29:17;11.60;;;7.97;;
14348;SDS011;7258;50.376;8.742;2023-04-25T04:31:27;10.37;;;7.23;;
14348;SDS011;7258;50.376;8.742;2023-04-25T04:33:39;10.10;;;7.40;;
14348;SDS011;7258;50.376;8.742;2023-04-25T04:35:50;11.23;;;8.27;;
14348;SDS011;7258;50.376;8.742;2023-04-25T04:38:15;11.90;;;8.60;;
14348;SDS011;7258;50.376;8.742;2023-04-25T04:40:31;14.63;;;9.07;;
14348;SDS011;7258;50.376;8.742;2023-04-25T04:42:35;17.43;;;9.53;;
14348;SDS011;7258;50.376;8.742;2023-04-25T04:44:41;9.87;;;8.30;;
14348;SDS011;7258;50.376;8.742;2023-04-25T04:46:46;13.20;;;8.53;;
14348;SDS011;7258;50.376;8.742;2023-04-25T04:48:50;18.73;;;8.53;;
14348;SDS011;7258;50.376;8.742;2023-04-25T04:50:54;14.80;;;9.40;;
14348;SDS011;7258;50.376;8.742;2023-04-25T04:52:59;13.17;;;8.37;;
14348;SDS011;7258;50.376;8.742;2023-04-25T04:55:04;13.90;;;8.53;;
14348;SDS011;7258;50.376;8.742;2023-04-25T04:57:19;14.57;;;8.30;;
14348;SDS011;7258;50.376;8.742;2023-04-25T04:59:30;12.60;;;8.53;;
14348;SDS011;7258;50.376;8.742;2023-04-25T05:01:38;14.17;;;8.30;;
14348;SDS011;7258;50.376;8.742;2023-04-25T05:03:59;13.23;;;8.27;;
14348;SDS011;7258;50.376;8.742;2023-04-25T05:06:11;14.03;;;8.10;;
14348;SDS011;7258;50.376;8.742;2023-04-25T05:08:25;14.67;;;8.23;;
14348;SDS011;7258;50.376;8.742;2023-04-25T05:10:52;13.73;;;8.57;;
14348;SDS011;7258;50.376;8.742;2023-04-25T05:13:12;11.93;;;7.87;;
14348;SDS011;7258;50.376;8.742;2023-04-25T05:15:25;13.97;;;7.30;;
14348;SDS011;7258;50.376;8.742;2023-04-25T05:17:33;10.87;;;7.40;;
14348;SDS011;7258;50.376;8.742;2023-04-25T05:19:39;9.60;;;7.30;;
14348;SDS011;7258;50.376;8.742;2023-04-25T05:21:44;11.70;;;7.30;;
14348;SDS011;7258;50.376;8.742;2023-04-25T05:23:47;11.53;;;7.73;;
14348;SDS011;7258;50.376;8.742;2023-04-25T05:25:59;11.80;;;7.00;;
14348;SDS011;7258;50.376;8.742;2023-04-25T05:28:10;10.50;;;7.53;;
14348;SDS011;7258;50.376;8.742;2023-04-25T05:30:22;10.53;;;6.77;;
14348;SDS011;7258;50.376;8.742;2023-04-25T05:32:35;10.33;;;6.43;;
14348;SDS011;7258;50.376;8.742;2023-04-25T05:34:41;10.37;;;6.53;;
14348;SDS011;7258;50.376;8.742;2023-04-25T05:37:04;7.43;;;6.17;;
14348;SDS011;7258;50.376;8.742;2023-04-25T05:39:10;9.97;;;6.33;;
14348;SDS011;7258;50.376;8.742;2023-04-25T05:41:19;6.67;;;5.80;;
14348;SDS011;7258;50.376;8.742;2023-04-25T05:43:27;8.53;;;5.50;;
14348;SDS011;7258;50.376;8.742;2023-04-25T05:45:40;9.10;;;5.00;;
14348;SDS011;7258;50.376;8.742;2023-04-25T05:48:12;7.43;;;4.80;;
14348;SDS011;7258;50.376;8.742;2023-04-25T05:50:23;5.23;;;4.73;;
14348;SDS011;7258;50.376;8.742;2023-04-25T05:52:55;7.57;;;5.03;;
14348;SDS011;7258;50.376;8.742;2023-04-25T05:55:07;11.07;;;5.37;;
14348;SDS011;7258;50.376;8.742;2023-04-25T05:57:33;6.87;;;5.17;;
14348;SDS011;7258;50.376;8.742;2023-04-25T05:59:58;7.57;;;4.63;;
14348;SDS011;7258;50.376;8.742;2023-04-25T06:02:11;6.73;;;4.80;;
14348;SDS011;7258;50.376;8.742;2023-04-25T06:04:35;7.23;;;5.00;;
14348;SDS011;7258;50.376;8.742;2023-04-25T06:06:55;9.37;;;5.00;;
14348;SDS011;7258;50.376;8.742;2023-04-25T06:09:03;7.37;;;4.60;;
14348;SDS011;7258;50.376;8.742;2023-04-25T06:11:20;7.87;;;4.67;;
14348;SDS011;7258;50.376;8.742;2023-04-25T06:16:12;11.43;;;4.47;;
14348;SDS011;7258;50.376;8.742;2023-04-25T06:18:36;6.93;;;4.57;;
14348;SDS011;7258;50.376;8.742;2023-04-25T06:23:14;8.00;;;4.53;;
14348;SDS011;7258;50.376;8.742;2023-04-25T06:25:20;8.13;;;3.83;;
14348;SDS011;7258;50.376;8.742;2023-04-25T06:27:54;8.53;;;4.73;;
14348;SDS011;7258;50.376;8.742;2023-04-25T06:32:53;8.60;;;4.57;;
14348;SDS011;7258;50.376;8.742;2023-04-25T06:35:01;6.00;;;4.70;;
14348;SDS011;7258;50.376;8.742;2023-04-25T06:37:11;8.70;;;4.43;;
14348;SDS011;7258;50.376;8.742;2023-04-25T06:39:18;8.10;;;4.90;;
14348;SDS011;7258;50.376;8.742;2023-04-25T06:41:25;7.60;;;5.00;;
14348;SDS011;7258;50.376;8.742;2023-04-25T06:43:28;8.80;;;5.30;;
14348;SDS011;7258;50.376;8.742;2023-04-25T06:45:35;7.97;;;4.97;;
14348;SDS011;7258;50.376;8.742;2023-04-25T06:47:39;7.40;;;4.80;;
14348;SDS011;7258;50.376;8.742;2023-04-25T06:49:49;7.07;;;4.40;;
14348;SDS011;7258;50.376;8.742;2023-04-25T06:52:00;8.40;;;5.00;;
14348;SDS011;7258;50.376;8.742;2023-04-25T06:54:04;7.03;;;4.63;;
14348;SDS011;7258;50.376;8.742;2023-04-25T06:56:07;8.43;;;4.47;;
14348;SDS011;7258;50.376;8.742;2023-04-25T06:58:10;7.47;;;4.87;;
14348;SDS011;7258;50.376;8.742;2023-04-25T07:00:20;6.20;;;4.63;;
14348;SDS011;7258;50.376;8.742;2023-04-25T07:02:23;7.27;;;4.70;;
14348;SDS011;7258;50.376;8.742;2023-04-25T07:04:28;6.17;;;4.77;;
14348;SDS011;7258;50.376;8.742;2023-04-25T07:06:33;6.77;;;4.70;;
14348;SDS011;7258;50.376;8.742;2023-04-25T07:08:41;6.53;;;5.30;;
14348;SDS011;7258;50.376;8.742;2023-04-25T07:10:52;5.23;;;4.43;;
14348;SDS011;7258;50.376;8.742;2023-04-25T07:12:57;7.80;;;4.97;;
14348;SDS011;7258;50.376;8.742;2023-04-25T07:15:04;6.80;;;5.17;;
14348;SDS011;7258;50.376;8.742;2023-04-25T07:17:11;6.40;;;4.90;;
14348;SDS011;7258;50.376;8.742;2023-04-25T07:19:16;7.63;;;4.80;;
14348;SDS011;7258;50.376;8.742;2023-04-25T07:21:20;7.37;;;4.73;;
14348;SDS011;7258;50.376;8.742;2023-04-25T07:23:23;6.80;;;4.53;;
14348;SDS011;7258;50.376;8.742;2023-04-25T07:25:31;6.37;;;4.73;;
14348;SDS011;7258;50.376;8.742;2023-04-25T07:27:38;7.73;;;4.83;;
14348;SDS011;7258;50.376;8.742;2023-04-25T07:29:42;8.57;;;4.87;;
14348;SDS011;7258;50.376;8.742;2023-04-25T07:31:47;8.07;;;4.70;;
14348;SDS011;7258;50.376;8.742;2023-04-25T07:34:00;5.20;;;4.43;;
14348;SDS011;7258;50.376;8.742;2023-04-25T07:36:05;6.40;;;4.70;;
14348;SDS011;7258;50.376;8.742;2023-04-25T07:38:12;5.57;;;4.40;;
14348;SDS011;7258;50.376;8.742;2023-04-25T07:40:17;6.93;;;4.47;;
14348;SDS011;7258;50.376;8.742;2023-04-25T07:42:31;7.60;;;4.10;;
14348;SDS011;7258;50.376;8.742;2023-04-25T07:44:38;6.83;;;4.23;;
14348;SDS011;7258;50.376;8.742;2023-04-25T07:46:43;7.80;;;4.80;;
14348;SDS011;7258;50.376;8.742;2023-04-25T07:48:48;6.80;;;4.60;;
14348;SDS011;7258;50.376;8.742;2023-04-25T07:50:53;7.80;;;4.70;;
14348;SDS011;7258;50.376;8.742;2023-04-25T07:52:58;7.60;;;4.50;;
14348;SDS011;7258;50.376;8.742;2023-04-25T07:55:20;7.00;;;4.33;;
14348;SDS011;7258;50.376;8.742;2023-04-25T07:57:23;9.33;;;4.63;;
14348;SDS011;7258;50.376;8.742;2023-04-25T07:59:27;6.20;;;4.63;;
14348;SDS011;7258;50.376;8.742;2023-04-25T08:01:33;7.93;;;4.70;;
14348;SDS011;7258;50.376;8.742;2023-04-25T08:03:39;5.57;;;4.83;;
14348;SDS011;7258;50.376;8.742;2023-04-25T08:05:50;8.57;;;4.80;;
14348;SDS011;7258;50.376;8.742;2023-04-25T08:07:56;7.40;;;4.30;;
14348;SDS011;7258;50.376;8.742;2023-04-25T08:09:59;7.47;;;4.70;;
14348;SDS011;7258;50.376;8.742;2023-04-25T08:12:06;6.37;;;4.90;;
14348;SDS011;7258;50.376;8.742;2023-04-25T08:14:11;7.87;;;5.40;;
14348;SDS011;7258;50.376;8.742;2023-04-25T08:16:14;7.27;;;4.70;;
14348;SDS011;7258;50.376;8.742;2023-04-25T08:18:17;6.23;;;4.67;;
14348;SDS011;7258;50.376;8.742;2023-04-25T08:20:21;7.33;;;4.87;;
14348;SDS011;7258;50.376;8.742;2023-04-25T08:22:24;6.33;;;4.70;;
14348;SDS011;7258;50.376;8.742;2023-04-25T08:24:33;8.73;;;5.03;;
14348;SDS011;7258;50.376;8.742;2023-04-25T08:26:39;6.80;;;4.70;;
14348;SDS011;7258;50.376;8.742;2023-04-25T08:28:44;6.20;;;4.73;;
14348;SDS011;7258;50.376;8.742;2023-04-25T08:30:48;4.93;;;4.40;;
14348;SDS011;7258;50.376;8.742;2023-04-25T08:32:52;8.10;;;4.60;;
14348;SDS011;7258;50.376;8.742;2023-04-25T08:34:57;5.30;;;4.60;;
14348;SDS011;7258;50.376;8.742;2023-04-25T08:37:00;5.47;;;4.53;;
14348;SDS011;7258;50.376;8.742;2023-04-25T08:39:05;6.50;;;4.83;;
14348;SDS011;7258;50.376;8.742;2023-04-25T08:41:10;9.10;;;5.27;;
14348;SDS011;7258;50.376;8.742;2023-04-25T08:43:14;8.03;;;5.00;;
14348;SDS011;7258;50.376;8.742;2023-04-25T08:45:22;7.00;;;4.97;;
14348;SDS011;7258;50.376;8.742;2023-04-25T08:47:28;7.57;;;5.00;;
14348;SDS011;7258;50.376;8.742;2023-04-25T08:49:36;7.53;;;4.93;;
14348;SDS011;7258;50.376;8.742;2023-04-25T08:51:44;6.80;;;4.87;;
14348;SDS011;7258;50.376;8.742;2023-04-25T08:53:49;6.33;;;5.10;;
14348;SDS011;7258;50.376;8.742;2023-04-25T08:55:58;7.27;;;4.97;;
14348;SDS011;7258;50.376;8.742;2023-04-25T08:58:02;5.23;;;4.60;;
14348;SDS011;7258;50.376;8.742;2023-04-25T09:00:07;5.97;;;4.57;;
14348;SDS011;7258;50.376;8.742;2023-04-25T09:02:13;8.43;;;4.10;;
14348;SDS011;7258;50.376;8.742;2023-04-25T09:04:19;6.63;;;4.43;;
14348;SDS011;7258;50.376;8.742;2023-04-25T09:06:22;6.15;;;3.95;;
14348;SDS011;7258;50.376;8.742;2023-04-25T09:08:27;7.53;;;4.53;;
14348;SDS011;7258;50.376;8.742;2023-04-25T09:10:30;7.05;;;4.50;;
14348;SDS011;7258;50.376;8.742;2023-04-25T09:12:34;5.45;;;4.30;;
14348;SDS011;7258;50.376;8.742;2023-04-25T09:14:38;5.47;;;4.53;;
14348;SDS011;7258;50.376;8.742;2023-04-25T09:16:59;5.90;;;4.27;;
14348;SDS011;7258;50.376;8.742;2023-04-25T09:19:05;5.57;;;4.50;;
14348;SDS011;7258;50.376;8.742;2023-04-25T09:21:09;6.67;;;4.43;;
14348;SDS011;7258;50.376;8.742;2023-04-25T09:23:17;5.50;;;4.35;;
14348;SDS011;7258;50.376;8.742;2023-04-25T09:25:23;5.68;;;4.50;;
14348;SDS011;7258;50.376;8.742;2023-04-25T09:27:28;6.03;;;4.40;;
14348;SDS011;7258;50.376;8.742;2023-04-25T09:29:31;7.35;;;4.95;;
14348;SDS011;7258;50.376;8.742;2023-04-25T09:31:35;6.27;;;4.70;;
14348;SDS011;7258;50.376;8.742;2023-04-25T09:33:38;7.57;;;4.67;;
14348;SDS011;7258;50.376;8.742;2023-04-25T09:35:49;8.27;;;4.67;;
14348;SDS011;7258;50.376;8.742;2023-04-25T09:37:56;7.63;;;5.03;;
14348;SDS011;7258;50.376;8.742;2023-04-25T09:40:00;7.30;;;4.53;;
14348;SDS011;7258;50.376;8.742;2023-04-25T09:42:07;9.17;;;4.97;;
14348;SDS011;7258;50.376;8.742;2023-04-25T09:44:12;9.97;;;4.90;;
14348;SDS011;7258;50.376;8.742;2023-04-25T09:46:15;6.40;;;4.40;;
14348;SDS011;7258;50.376;8.742;2023-04-25T09:48:23;8.13;;;3.70;;
14348;SDS011;7258;50.376;8.742;2023-04-25T09:50:28;7.07;;;3.60;;
14348;SDS011;7258;50.376;8.742;2023-04-25T09:52:33;4.03;;;3.00;;
14348;SDS011;7258;50.376;8.742;2023-04-25T09:54:36;4.83;;;3.27;;
14348;SDS011;7258;50.376;8.742;2023-04-25T09:56:41;4.40;;;2.70;;
14348;SDS011;7258;50.376;8.742;2023-04-25T09:58:46;3.93;;;3.13;;
14348;SDS011;7258;50.376;8.742;2023-04-25T10:00:52;3.10;;;2.50;;
14348;SDS011;7258;50.376;8.742;2023-04-25T10:02:59;3.37;;;2.53;;
14348;SDS011;7258;50.376;8.742;2023-04-25T10:05:05;3.97;;;2.37;;
14348;SDS011;7258;50.376;8.742;2023-04-25T10:07:11;4.23;;;2.50;;
14348;SDS011;7258;50.376;8.742;2023-04-25T10:09:18;6.70;;;3.15;;
14348;SDS011;7258;50.376;8.742;2023-04-25T10:11:33;6.40;;;3.30;;
14348;SDS011;7258;50.376;8.742;2023-04-25T10:13:41;7.10;;;3.20;;
14348;SDS011;7258;50.376;8.742;2023-04-25T10:15:45;5.13;;;2.85;;
14348;SDS011;7258;50.376;8.742;2023-04-25T10:17:49;7.90;;;3.08;;
14348;SDS011;7258;50.376;8.742;2023-04-25T10:19:55;3.70;;;2.60;;
14348;SDS011;7258;50.376;8.742;2023-04-25T10:22:06;5.47;;;2.65;;
14348;SDS011;7258;50.376;8.742;2023-04-25T10:24:11;6.13;;;2.60;;
14348;SDS011;7258;50.376;8.742;2023-04-25T10:26:17;3.33;;;2.38;;
14348;SDS011;7258;50.376;8.742;2023-04-25T10:28:39;5.97;;;2.60;;
14348;SDS011;7258;50.376;8.742;2023-04-25T10:30:58;5.90;;;2.77;;
14348;SDS011;7258;50.376;8.742;2023-04-25T10:33:02;4.30;;;2.30;;
14348;SDS011;7258;50.376;8.742;2023-04-25T10:35:23;5.50;;;2.50;;
14348;SDS011;7258;50.376;8.742;2023-04-25T10:37:31;4.75;;;2.40;;
14348;SDS011;7258;50.376;8.742;2023-04-25T10:39:34;6.22;;;2.30;;
14348;SDS011;7258;50.376;8.742;2023-04-25T10:41:53;7.27;;;2.50;;
14348;SDS011;7258;50.376;8.742;2023-04-25T10:44:02;4.93;;;2.67;;
14348;SDS011;7258;50.376;8.742;2023-04-25T10:46:14;5.82;;;2.65;;
14348;SDS011;7258;50.376;8.742;2023-04-25T10:48:24;7.65;;;2.30;;
14348;SDS011;7258;50.376;8.742;2023-04-25T10:50:36;6.93;;;2.65;;
14348;SDS011;7258;50.376;8.742;2023-04-25T10:52:41;5.43;;;2.20;;
14348;SDS011;7258;50.376;8.742;2023-04-25T10:54:47;6.78;;;2.53;;
14348;SDS011;7258;50.376;8.742;2023-04-25T10:56:54;4.03;;;2.45;;
14348;SDS011;7258;50.376;8.742;2023-04-25T10:59:06;6.72;;;2.42;;
14348;SDS011;7258;50.376;8.742;2023-04-25T11:01:12;6.07;;;2.53;;
14348;SDS011;7258;50.376;8.742;2023-04-25T11:03:20;6.13;;;2.50;;
14348;SDS011;7258;50.376;8.742;2023-04-25T11:05:29;6.68;;;2.65;;
14348;SDS011;7258;50.376;8.742;2023-04-25T11:07:42;6.75;;;2.90;;
14348;SDS011;7258;50.376;8.742;2023-04-25T11:10:06;4.78;;;2.75;;
14348;SDS011;7258;50.376;8.742;2023-04-25T11:12:11;4.35;;;2.08;;
14348;SDS011;7258;50.376;8.742;2023-04-25T11:14:17;6.00;;;2.50;;
14348;SDS011;7258;50.376;8.742;2023-04-25T11:16:23;6.75;;;2.67;;
14348;SDS011;7258;50.376;8.742;2023-04-25T11:18:29;6.00;;;2.50;;
14348;SDS011;7258;50.376;8.742;2023-04-25T11:20:34;5.50;;;2.60;;
14348;SDS011;7258;50.376;8.742;2023-04-25T11:22:37;4.53;;;2.05;;
14348;SDS011;7258;50.376;8.742;2023-04-25T11:24:43;5.72;;;2.35;;
14348;SDS011;7258;50.376;8.742;2023-04-25T11:26:48;3.30;;;2.28;;
14348;SDS011;7258;50.376;8.742;2023-04-25T11:29:00;4.03;;;2.10;;
14348;SDS011;7258;50.376;8.742;2023-04-25T11:31:05;6.05;;;2.25;;
14348;SDS011;7258;50.376;8.742;2023-04-25T11:33:11;5.63;;;2.78;;
14348;SDS011;7258;50.376;8.742;2023-04-25T11:35:14;5.40;;;2.72;;
14348;SDS011;7258;50.376;8.742;2023-04-25T11:37:17;5.95;;;2.35;;
14348;SDS011;7258;50.376;8.742;2023-04-25T11:39:21;8.02;;;2.60;;
14348;SDS011;7258;50.376;8.742;2023-04-25T11:41:26;5.05;;;2.65;;
14348;SDS011;7258;50.376;8.742;2023-04-25T11:43:31;7.20;;;2.58;;
14348;SDS011;7258;50.376;8.742;2023-04-25T11:45:37;5.65;;;2.53;;
14348;SDS011;7258;50.376;8.742;2023-04-25T11:47:43;5.40;;;2.50;;
14348;SDS011;7258;50.376;8.742;2023-04-25T11:49:57;6.50;;;2.42;;
14348;SDS011;7258;50.376;8.742;2023-04-25T11:52:01;4.70;;;2.50;;
14348;SDS011;7258;50.376;8.742;2023-04-25T11:54:06;11.55;;;3.03;;
14348;SDS011;7258;50.376;8.742;2023-04-25T11:56:11;5.72;;;2.80;;
14348;SDS011;7258;50.376;8.742;2023-04-25T11:58:15;6.63;;;2.80;;
14348;SDS011;7258;50.376;8.742;2023-04-25T12:00:22;7.28;;;2.75;;
14348;SDS011;7258;50.376;8.742;2023-04-25T12:02:27;5.75;;;2.53;;
14348;SDS011;7258;50.376;8.742;2023-04-25T12:04:30;5.25;;;2.63;;
14348;SDS011;7258;50.376;8.742;2023-04-25T12:06:36;6.13;;;3.10;;
14348;SDS011;7258;50.376;8.742;2023-04-25T12:11:04;6.88;;;2.70;;
14348;SDS011;7258;50.376;8.742;2023-04-25T12:13:20;8.30;;;2.78;;
14348;SDS011;7258;50.376;8.742;2023-04-25T12:15:24;7.43;;;2.90;;
14348;SDS011;7258;50.376;8.742;2023-04-25T12:17:29;5.82;;;2.67;;
14348;SDS011;7258;50.376;8.742;2023-04-25T12:19:35;7.75;;;3.13;;
14348;SDS011;7258;50.376;8.742;2023-04-25T12:21:41;5.28;;;2.70;;
14348;SDS011;7258;50.376;8.742;2023-04-25T12:24:08;3.30;;;2.33;;
14348;SDS011;7258;50.376;8.742;2023-04-25T12:26:12;8.75;;;3.03;;
14348;SDS011;7258;50.376;8.742;2023-04-25T12:28:17;3.90;;;2.40;;
14348;SDS011;7258;50.376;8.742;2023-04-25T12:30:21;7.03;;;2.85;;
14348;SDS011;7258;50.376;8.742;2023-04-25T12:32:25;4.65;;;2.70;;
14348;SDS011;7258;50.376;8.742;2023-04-25T12:34:36;4.63;;;2.55;;
14348;SDS011;7258;50.376;8.742;2023-04-25T12:36:39;7.20;;;2.88;;
14348;SDS011;7258;50.376;8.742;2023-04-25T12:38:43;4.57;;;2.67;;
14348;SDS011;7258;50.376;8.742;2023-04-25T12:40:49;4.60;;;2.45;;
14348;SDS011;7258;50.376;8.742;2023-04-25T12:42:52;3.80;;;2.63;;
14348;SDS011;7258;50.376;8.742;2023-04-25T12:44:55;6.10;;;3.10;;
14348;SDS011;7258;50.376;8.742;2023-04-25T12:47:00;7.53;;;2.95;;
14348;SDS011;7258;50.376;8.742;2023-04-25T12:49:04;6.57;;;2.80;;
14348;SDS011;7258;50.376;8.742;2023-04-25T12:51:20;5.60;;;2.90;;
14348;SDS011;7258;50.376;8.742;2023-04-25T12:53:26;5.45;;;2.45;;
14348;SDS011;7258;50.376;8.742;2023-04-25T12:55:29;5.60;;;2.90;;
14348;SDS011;7258;50.376;8.742;2023-04-25T12:57:32;4.97;;;2.63;;
14348;SDS011;7258;50.376;8.742;2023-04-25T12:59:35;7.15;;;2.90;;
14348;SDS011;7258;50.376;8.742;2023-04-25T13:01:39;4.95;;;2.50;;